CheckWX is a tool to help pilots better visualize weather data.  It is not intended as a substitute for an official pre-flight weather briefing.

13:10:36 UTC

EGOV METAR
Anglesey Airport
Angelsey, United Kingdom
Current

37 mins ago

EGOV 181234Z 23024KT 9999 SCT023 BKN060 08/05 Q1009 WHT TEMPO FEW023 BLU
Observed
Feb-18 @ 12:34 UTC
Wind
  • 230° at 24 KTS
Visibility
10,000+ meters
Flight Rules
VFR
Cloud Levels
  • Scattered at 2,300' AGL
  • Broken at 6,000' AGL
Temperature
C / 46°F
Dewpoint
C / 41°F
Humidity
82%
Altimeter
29.79" Hg
Pressure
1008.92 hPa
Previous

1 hour ago

EGOV 181150Z 22022G32KT 9999 FEW024 SCT080 09/05 Q1009 BLU TEMPO -SHRA SCT024 WHT
Observed
Feb-18 @ 11:50 UTC
Wind
  • 220° at 22 KTS
  • Gusting to 32 KTS
Visibility
10,000+ meters
Flight Rules
VFR
Cloud Levels
  • Few at 2,400' AGL
  • Scattered at 8,000' AGL
Temperature
C / 48°F
Dewpoint
C / 41°F
Humidity
76%
Altimeter
29.79" Hg
Pressure
1008.92 hPa
Previous

2 hours ago

EGOV 181050Z 21023KT 9999 FEW029 09/05 Q1009 BLU NOSIG
Observed
Feb-18 @ 10:50 UTC
Wind
  • 210° at 23 KTS
Visibility
10,000+ meters
Flight Rules
VFR
Cloud Levels
  • Few at 2,900' AGL
Temperature
C / 48°F
Dewpoint
C / 41°F
Humidity
76%
Altimeter
29.79" Hg
Pressure
1008.92 hPa